Time;durP1;ratioP1;P1;durP2;ratioP2;P2;SDS_P1;SDS_P2;PMS_P1;PMS_P2;Temp;Humidity;BMP_temperature;BMP_pressure;BME280_temperature;BME280_humidity;BME280_pressure;Samples;Min_cycle;Max_cycle;Signal;HPM_P1;HPM_P2
2024/01/23 00:01:45;;;;;;;9.80;9.38;;;;;;;;;;5071200;28;20385;-62
2024/01/23 00:04:10;;;;;;;10.00;9.50;;;;;;;;;;5079514;28;20578;-62
2024/01/23 00:06:36;;;;;;;10.00;9.52;;;;;;;;;;5077504;28;20115;-62
2024/01/23 00:09:01;;;;;;;10.40;9.90;;;;;;;;;;5070944;28;20077;-62
2024/01/23 00:11:26;;;;;;;10.63;10.13;;;;;;;;;;5079982;28;20032;-62
2024/01/23 00:13:52;;;;;;;10.20;9.70;;;;;;;;;;5060805;28;20051;-62
2024/01/23 00:16:17;;;;;;;11.02;10.43;;;;;;;;;;5072903;28;20025;-62
2024/01/23 00:18:42;;;;;;;10.57;10.07;;;;;;;;;;5068448;28;20024;-62
2024/01/23 00:21:07;;;;;;;10.13;9.63;;;;;;;;;;5074637;28;20034;-62
2024/01/23 00:23:33;;;;;;;10.50;10.00;;;;;;;;;;5055374;28;20112;-62
2024/01/23 00:25:58;;;;;;;10.48;9.98;;;;;;;;;;5077898;28;20095;-62
2024/01/23 00:28:23;;;;;;;10.00;9.50;;;;;;;;;;5075838;28;20050;-62
2024/01/23 00:30:49;;;;;;;10.48;9.98;;;;;;;;;;5083858;28;20027;-62
2024/01/23 00:33:14;;;;;;;9.70;9.30;;;;;;;;;;5072561;28;20060;-62
2024/01/23 00:35:40;;;;;;;10.50;10.00;;;;;;;;;;5072171;28;20052;-62
2024/01/23 00:38:06;;;;;;;10.30;9.80;;;;;;;;;;5065813;28;20469;-62
2024/01/23 00:40:31;;;;;;;10.63;10.13;;;;;;;;;;5070597;28;20479;-62
2024/01/23 00:42:57;;;;;;;10.68;10.18;;;;;;;;;;5071989;28;20020;-61
2024/01/23 00:45:22;;;;;;;10.82;10.32;;;;;;;;;;5071462;28;20490;-61
2024/01/23 00:47:47;;;;;;;10.98;10.45;;;;;;;;;;5069954;28;20029;-62
2024/01/23 00:50:13;;;;;;;10.63;10.13;;;;;;;;;;5071852;28;20037;-62
2024/01/23 00:52:38;;;;;;;10.82;10.32;;;;;;;;;;5052035;28;20036;-62
2024/01/23 00:55:04;;;;;;;10.55;10.05;;;;;;;;;;5072607;28;20595;-62
2024/01/23 00:57:30;;;;;;;10.15;9.65;;;;;;;;;;5052619;28;20071;-62
2024/01/23 00:59:55;;;;;;;12.15;11.45;;;;;;;;;;5065078;28;20094;-62
2024/01/23 01:02:20;;;;;;;10.48;9.98;;;;;;;;;;5073664;28;20608;-62
2024/01/23 01:04:46;;;;;;;10.50;10.00;;;;;;;;;;5076346;28;20047;-62
2024/01/23 01:07:15;;;;;;;10.40;9.90;;;;;;;;;;5067820;28;20019;-61
2024/01/23 01:09:40;;;;;;;10.27;9.77;;;;;;;;;;5074733;28;20067;-61
2024/01/23 01:12:06;;;;;;;10.90;10.40;;;;;;;;;;5072333;28;20502;-62
2024/01/23 01:14:33;;;;;;;10.50;10.00;;;;;;;;;;5073197;28;20021;-62
2024/01/23 01:16:58;;;;;;;10.80;10.23;;;;;;;;;;5073549;28;20032;-62
2024/01/23 01:19:24;;;;;;;10.68;10.18;;;;;;;;;;5073992;28;20015;-61
2024/01/23 01:21:49;;;;;;;9.93;9.43;;;;;;;;;;5066480;28;20051;-61
2024/01/23 01:24:14;;;;;;;10.40;9.90;;;;;;;;;;5068315;28;20017;-61
2024/01/23 01:26:40;;;;;;;9.75;9.35;;;;;;;;;;5068054;28;20040;-61
2024/01/23 01:29:05;;;;;;;10.10;9.60;;;;;;;;;;5072295;28;20020;-61
2024/01/23 01:31:31;;;;;;;10.63;10.13;;;;;;;;;;5072145;28;20104;-61
2024/01/23 01:33:56;;;;;;;10.40;9.90;;;;;;;;;;5071224;28;20099;-61
2024/01/23 01:36:22;;;;;;;10.43;9.93;;;;;;;;;;5050743;28;20025;-60
2024/01/23 01:38:47;;;;;;;10.52;10.02;;;;;;;;;;5073539;28;20042;-62
2024/01/23 01:41:12;;;;;;;10.35;9.85;;;;;;;;;;5073794;28;20023;-59
2024/01/23 01:43:38;;;;;;;10.75;10.25;;;;;;;;;;5070538;28;20029;-61
2024/01/23 01:46:03;;;;;;;10.77;10.27;;;;;;;;;;5075162;28;20030;-61
2024/01/23 01:48:29;;;;;;;10.23;9.73;;;;;;;;;;5078795;28;20031;-61
2024/01/23 01:50:54;;;;;;;10.50;10.00;;;;;;;;;;5074845;28;20077;-61
2024/01/23 01:53:19;;;;;;;10.07;9.57;;;;;;;;;;5075666;28;20027;-61
2024/01/23 01:55:45;;;;;;;10.00;9.60;;;;;;;;;;5073124;28;20036;-63
2024/01/23 01:58:11;;;;;;;9.88;9.48;;;;;;;;;;5067445;28;20057;-62
2024/01/23 02:00:37;;;;;;;10.05;9.55;;;;;;;;;;5071326;28;20016;-61
2024/01/23 02:03:03;;;;;;;10.80;10.30;;;;;;;;;;5069425;28;20020;-60
2024/01/23 02:05:28;;;;;;;10.27;9.77;;;;;;;;;;5071430;28;20049;-60
2024/01/23 02:07:54;;;;;;;10.98;10.43;;;;;;;;;;5065756;28;20364;-61
2024/01/23 02:10:19;;;;;;;10.60;10.10;;;;;;;;;;5066623;28;20020;-61
2024/01/23 02:12:44;;;;;;;10.20;9.70;;;;;;;;;;5065638;28;20025;-61
2024/01/23 02:15:10;;;;;;;10.27;9.77;;;;;;;;;;5069805;28;20035;-60
2024/01/23 02:17:35;;;;;;;10.60;10.10;;;;;;;;;;5075778;28;20017;-61
2024/01/23 02:20:01;;;;;;;10.02;9.52;;;;;;;;;;5071263;28;20491;-63
2024/01/23 02:22:26;;;;;;;10.40;9.90;;;;;;;;;;5071881;28;20477;-61
2024/01/23 02:24:51;;;;;;;10.55;10.05;;;;;;;;;;5067275;28;20016;-62
2024/01/23 02:27:17;;;;;;;10.15;9.65;;;;;;;;;;5067445;28;20041;-62
2024/01/23 02:29:42;;;;;;;10.35;9.85;;;;;;;;;;5064737;28;20020;-62
2024/01/23 02:32:07;;;;;;;9.85;9.45;;;;;;;;;;5064716;28;20020;-62
2024/01/23 02:34:33;;;;;;;10.52;10.02;;;;;;;;;;5060924;28;20047;-61
2024/01/23 02:36:58;;;;;;;10.30;9.80;;;;;;;;;;5069097;28;20461;-60
2024/01/23 02:39:25;;;;;;;10.10;9.60;;;;;;;;;;5066117;28;20066;-61
2024/01/23 02:41:51;;;;;;;10.00;9.50;;;;;;;;;;5060630;28;20028;-61
2024/01/23 02:44:16;;;;;;;10.07;9.57;;;;;;;;;;5063625;28;20024;-61
2024/01/23 02:46:42;;;;;;;10.43;9.93;;;;;;;;;;5068199;28;20040;-61
2024/01/23 02:49:08;;;;;;;10.13;9.63;;;;;;;;;;5062962;28;20134;-61
2024/01/23 02:51:33;;;;;;;10.20;9.70;;;;;;;;;;5074271;28;20051;-62
2024/01/23 02:53:59;;;;;;;10.20;9.70;;;;;;;;;;5076960;28;20027;-61
2024/01/23 02:56:25;;;;;;;10.00;9.50;;;;;;;;;;5068899;28;20027;-62
2024/01/23 02:58:50;;;;;;;10.73;10.23;;;;;;;;;;5062857;28;20021;-61
2024/01/23 03:01:16;;;;;;;10.48;9.98;;;;;;;;;;5064658;28;20467;-62
2024/01/23 03:03:41;;;;;;;11.13;10.52;;;;;;;;;;5065844;28;20044;-62
2024/01/23 03:06:06;;;;;;;10.05;9.55;;;;;;;;;;5062317;28;20051;-62
2024/01/23 03:08:32;;;;;;;10.50;10.00;;;;;;;;;;5064279;28;20021;-61
2024/01/23 03:10:57;;;;;;;10.63;10.13;;;;;;;;;;5072761;28;20090;-63
2024/01/23 03:13:23;;;;;;;10.25;9.75;;;;;;;;;;5048712;28;20027;-61
2024/01/23 03:15:49;;;;;;;10.50;10.00;;;;;;;;;;5069631;28;20560;-61
2024/01/23 03:18:14;;;;;;;10.43;9.93;;;;;;;;;;5064625;28;20024;-62
2024/01/23 03:20:40;;;;;;;10.25;9.75;;;;;;;;;;5062670;28;20364;-61
2024/01/23 03:23:05;;;;;;;10.57;10.07;;;;;;;;;;5057505;28;20043;-63
2024/01/23 03:25:30;;;;;;;10.18;9.68;;;;;;;;;;5058825;28;20104;-61
2024/01/23 03:27:57;;;;;;;10.60;10.10;;;;;;;;;;5068865;28;20047;-61
2024/01/23 03:30:30;;;;;;;10.80;10.25;;;;;;;;;;5060927;28;20031;-63
2024/01/23 03:32:55;;;;;;;11.13;10.52;;;;;;;;;;5068178;28;20020;-62
2024/01/23 03:35:21;;;;;;;10.48;9.98;;;;;;;;;;5069844;28;20031;-62
2024/01/23 03:37:46;;;;;;;10.50;10.00;;;;;;;;;;5064789;28;20021;-62
2024/01/23 03:40:11;;;;;;;10.00;9.50;;;;;;;;;;5071421;28;20024;-62
2024/01/23 03:42:37;;;;;;;10.52;10.02;;;;;;;;;;5055095;28;20050;-62
2024/01/23 03:45:03;;;;;;;10.05;9.55;;;;;;;;;;5066060;28;20495;-62
2024/01/23 03:47:29;;;;;;;10.10;9.60;;;;;;;;;;5068254;28;20085;-62
2024/01/23 03:49:54;;;;;;;10.55;10.05;;;;;;;;;;5057522;28;20025;-61
2024/01/23 03:52:19;;;;;;;10.10;9.60;;;;;;;;;;5077463;28;20107;-61
2024/01/23 03:54:45;;;;;;;10.45;9.95;;;;;;;;;;5060638;28;20452;-61
2024/01/23 03:57:10;;;;;;;10.70;10.20;;;;;;;;;;5067169;28;20035;-61
2024/01/23 03:59:35;;;;;;;10.63;10.13;;;;;;;;;;5072264;28;20013;-61
2024/01/23 04:02:01;;;;;;;11.00;10.40;;;;;;;;;;5070860;28;20055;-61
2024/01/23 04:04:26;;;;;;;10.90;10.38;;;;;;;;;;5070690;28;20024;-61
2024/01/23 04:06:52;;;;;;;10.82;10.32;;;;;;;;;;5063511;28;20032;-61
2024/01/23 04:09:17;;;;;;;10.57;10.07;;;;;;;;;;5062374;28;20027;-61
2024/01/23 04:11:46;;;;;;;10.38;9.88;;;;;;;;;;5060609;28;20582;-61
2024/01/23 04:14:12;;;;;;;10.00;9.50;;;;;;;;;;5064442;28;20429;-62
2024/01/23 04:16:37;;;;;;;10.73;10.20;;;;;;;;;;5074636;28;20025;-62
2024/01/23 04:19:02;;;;;;;10.45;9.95;;;;;;;;;;5055203;28;20589;-62
2024/01/23 04:21:28;;;;;;;10.88;10.38;;;;;;;;;;5077317;28;20471;-63
2024/01/23 04:23:53;;;;;;;10.82;10.30;;;;;;;;;;5065314;28;20103;-62
2024/01/23 04:26:19;;;;;;;10.38;9.88;;;;;;;;;;5072890;28;20058;-62
2024/01/23 04:28:44;;;;;;;10.85;10.35;;;;;;;;;;5067462;28;20042;-62
2024/01/23 04:31:10;;;;;;;10.95;10.35;;;;;;;;;;5066362;28;20103;-61
2024/01/23 04:33:35;;;;;;;11.15;10.55;;;;;;;;;;5071417;28;20024;-62
2024/01/23 04:36:00;;;;;;;10.63;10.13;;;;;;;;;;5049681;28;20033;-63
2024/01/23 04:38:26;;;;;;;10.60;10.10;;;;;;;;;;5064982;28;20130;-63
2024/01/23 04:40:51;;;;;;;11.05;10.48;;;;;;;;;;5072190;28;20028;-63
2024/01/23 04:43:17;;;;;;;10.55;10.05;;;;;;;;;;5056422;28;20433;-62
2024/01/23 04:45:43;;;;;;;11.30;10.70;;;;;;;;;;5071267;28;20028;-62
2024/01/23 04:48:08;;;;;;;11.57;10.98;;;;;;;;;;5066061;28;20024;-62
2024/01/23 04:50:34;;;;;;;11.60;11.00;;;;;;;;;;5068237;28;20021;-62
2024/01/23 04:52:59;;;;;;;11.48;10.88;;;;;;;;;;5073011;28;20029;-62
2024/01/23 04:55:24;;;;;;;11.95;11.32;;;;;;;;;;5074370;28;20391;-62
2024/01/23 04:57:50;;;;;;;11.68;11.07;;;;;;;;;;5064443;28;20395;-63
2024/01/23 05:00:17;;;;;;;11.68;11.07;;;;;;;;;;5071773;28;20024;-62
2024/01/23 05:02:43;;;;;;;11.38;10.77;;;;;;;;;;5066402;28;20012;-63
2024/01/23 05:05:08;;;;;;;11.70;11.07;;;;;;;;;;5056290;28;20052;-62
2024/01/23 05:07:33;;;;;;;11.00;10.50;;;;;;;;;;5067814;28;20031;-63
2024/01/23 05:09:59;;;;;;;11.15;10.60;;;;;;;;;;5076333;28;20040;-62
2024/01/23 05:12:24;;;;;;;10.93;10.43;;;;;;;;;;5072248;28;20064;-63
2024/01/23 05:14:49;;;;;;;11.55;10.95;;;;;;;;;;5071853;28;20035;-63
2024/01/23 05:17:15;;;;;;;11.38;10.77;;;;;;;;;;5074747;28;20031;-63
2024/01/23 05:19:40;;;;;;;11.60;11.00;;;;;;;;;;5076060;28;20028;-63
2024/01/23 05:22:06;;;;;;;12.52;11.82;;;;;;;;;;5070615;28;20490;-63
2024/01/23 05:24:31;;;;;;;11.35;10.75;;;;;;;;;;5061634;28;20016;-61
2024/01/23 05:26:56;;;;;;;11.02;10.52;;;;;;;;;;5070314;28;20051;-62
2024/01/23 05:29:22;;;;;;;11.52;10.93;;;;;;;;;;5072600;28;20150;-61
2024/01/23 05:31:47;;;;;;;11.65;11.05;;;;;;;;;;5071125;28;20017;-63
2024/01/23 05:34:13;;;;;;;11.02;10.52;;;;;;;;;;5068852;28;20357;-61
2024/01/23 05:36:38;;;;;;;11.15;10.57;;;;;;;;;;5071812;28;20009;-63
2024/01/23 05:39:04;;;;;;;11.32;10.73;;;;;;;;;;5065083;28;20020;-63
2024/01/23 05:41:29;;;;;;;11.70;11.10;;;;;;;;;;5066248;28;20433;-61
2024/01/23 05:43:57;;;;;;;11.57;10.98;;;;;;;;;;5074399;28;20024;-62
2024/01/23 05:46:22;;;;;;;11.85;11.25;;;;;;;;;;5070229;28;20020;-61
2024/01/23 05:48:47;;;;;;;11.60;11.00;;;;;;;;;;5074119;28;20044;-63
2024/01/23 05:51:13;;;;;;;11.15;10.63;;;;;;;;;;5055523;28;20024;-62
2024/01/23 05:53:38;;;;;;;11.75;11.15;;;;;;;;;;5073462;28;20037;-61
2024/01/23 05:56:04;;;;;;;13.23;12.43;;;;;;;;;;5064927;28;20027;-61
2024/01/23 05:58:29;;;;;;;11.48;10.88;;;;;;;;;;5068014;28;20029;-62
2024/01/23 06:00:54;;;;;;;11.00;10.45;;;;;;;;;;5067564;28;20031;-63
2024/01/23 06:03:20;;;;;;;10.43;9.93;;;;;;;;;;5049156;28;20024;-63
2024/01/23 06:05:45;;;;;;;10.77;10.18;;;;;;;;;;5052544;28;20120;-63
2024/01/23 06:08:11;;;;;;;10.25;9.75;;;;;;;;;;5070710;28;20372;-61
2024/01/23 06:10:37;;;;;;;11.10;10.50;;;;;;;;;;5070033;28;20038;-62
2024/01/23 06:13:02;;;;;;;11.50;10.90;;;;;;;;;;5065276;28;20029;-60
2024/01/23 06:15:27;;;;;;;11.35;10.75;;;;;;;;;;5046584;28;20024;-61
2024/01/23 06:17:53;;;;;;;11.20;10.60;;;;;;;;;;5072151;28;20130;-62
2024/01/23 06:20:18;;;;;;;11.50;10.90;;;;;;;;;;5071483;28;20050;-61
2024/01/23 06:22:43;;;;;;;10.63;10.13;;;;;;;;;;5051662;28;20025;-61
2024/01/23 06:25:10;;;;;;;11.07;10.48;;;;;;;;;;5074166;28;20093;-61
2024/01/23 06:27:36;;;;;;;10.73;10.23;;;;;;;;;;5053701;28;20070;-61
2024/01/23 06:30:02;;;;;;;11.13;10.52;;;;;;;;;;5068609;28;20498;-61
2024/01/23 06:32:27;;;;;;;10.60;10.10;;;;;;;;;;5069228;28;20120;-62
2024/01/23 06:34:53;;;;;;;10.18;9.68;;;;;;;;;;5071881;28;20119;-61
2024/01/23 06:37:18;;;;;;;9.93;9.43;;;;;;;;;;5070317;28;20046;-62
2024/01/23 06:39:44;;;;;;;10.23;9.73;;;;;;;;;;5077524;28;20061;-63
2024/01/23 06:42:09;;;;;;;10.75;10.20;;;;;;;;;;5061025;28;20033;-62
2024/01/23 06:44:35;;;;;;;10.40;9.90;;;;;;;;;;5068916;28;20018;-69
2024/01/23 06:47:00;;;;;;;11.00;10.43;;;;;;;;;;5063849;28;20025;-61
2024/01/23 06:49:25;;;;;;;10.27;9.77;;;;;;;;;;5067491;28;20040;-61
2024/01/23 06:51:51;;;;;;;9.82;9.40;;;;;;;;;;5072782;28;20044;-63
2024/01/23 06:54:16;;;;;;;10.68;10.18;;;;;;;;;;5073204;28;20020;-62
2024/01/23 06:56:41;;;;;;;9.70;9.30;;;;;;;;;;5066681;28;20012;-61
2024/01/23 06:59:07;;;;;;;10.35;9.85;;;;;;;;;;5056514;28;20019;-61
2024/01/23 07:01:32;;;;;;;10.60;10.10;;;;;;;;;;5062279;28;20058;-62
2024/01/23 07:03:58;;;;;;;10.88;10.38;;;;;;;;;;5061808;28;20023;-62
2024/01/23 07:06:23;;;;;;;11.45;10.95;;;;;;;;;;5049318;28;20507;-61
2024/01/23 07:08:48;;;;;;;11.50;11.00;;;;;;;;;;5063041;28;20728;-61
2024/01/23 07:11:14;;;;;;;11.88;11.27;;;;;;;;;;5065400;28;20089;-61
2024/01/23 07:13:39;;;;;;;11.40;10.90;;;;;;;;;;5062249;28;20067;-62
2024/01/23 07:16:05;;;;;;;12.27;11.68;;;;;;;;;;5056817;28;20021;-61
2024/01/23 07:18:30;;;;;;;12.88;12.18;;;;;;;;;;5067776;28;20044;-61
2024/01/23 07:20:56;;;;;;;11.75;11.15;;;;;;;;;;5064637;28;20051;-62
2024/01/23 07:23:21;;;;;;;11.27;10.77;;;;;;;;;;5057353;28;20403;-61
2024/01/23 07:25:46;;;;;;;10.73;10.23;;;;;;;;;;5070305;28;20015;-61
2024/01/23 07:28:12;;;;;;;11.13;10.57;;;;;;;;;;5059191;28;20028;-62
2024/01/23 07:30:37;;;;;;;11.05;10.55;;;;;;;;;;5065798;28;20112;-62
2024/01/23 07:33:02;;;;;;;10.77;10.27;;;;;;;;;;5047379;28;20012;-61
2024/01/23 07:35:28;;;;;;;10.68;10.18;;;;;;;;;;5062811;28;20032;-61
2024/01/23 07:37:53;;;;;;;10.40;9.90;;;;;;;;;;5064825;28;20025;-62
2024/01/23 07:40:18;;;;;;;10.75;10.25;;;;;;;;;;5067069;28;20032;-63
2024/01/23 07:42:44;;;;;;;10.68;10.18;;;;;;;;;;5071261;28;20101;-62
2024/01/23 07:45:09;;;;;;;10.80;10.30;;;;;;;;;;5058187;28;20071;-64
2024/01/23 07:47:36;;;;;;;12.45;11.75;;;;;;;;;;5065377;28;20510;-63
2024/01/23 07:50:02;;;;;;;11.93;11.32;;;;;;;;;;5071652;28;20032;-63
2024/01/23 07:52:31;;;;;;;10.57;10.07;;;;;;;;;;5065592;28;20020;-64
2024/01/23 07:54:56;;;;;;;10.55;10.05;;;;;;;;;;5070787;28;20042;-63
2024/01/23 07:57:22;;;;;;;10.63;10.13;;;;;;;;;;5078879;28;20032;-63
2024/01/23 07:59:47;;;;;;;11.43;10.82;;;;;;;;;;5058845;28;20047;-63
2024/01/23 08:02:12;;;;;;;10.68;10.18;;;;;;;;;;5067809;28;20051;-63
2024/01/23 08:04:38;;;;;;;11.15;10.63;;;;;;;;;;5054937;28;20054;-63
2024/01/23 08:07:03;;;;;;;11.77;11.18;;;;;;;;;;5075350;28;20028;-63
2024/01/23 08:09:29;;;;;;;10.82;10.32;;;;;;;;;;5053046;28;20025;-64
2024/01/23 08:11:54;;;;;;;10.50;10.00;;;;;;;;;;5050319;28;20104;-64
2024/01/23 08:14:19;;;;;;;10.23;9.73;;;;;;;;;;5070338;28;20021;-64
2024/01/23 08:16:45;;;;;;;10.65;10.15;;;;;;;;;;5054905;28;20067;-64
2024/01/23 08:19:10;;;;;;;11.15;10.55;;;;;;;;;;5069340;28;20036;-64
2024/01/23 08:21:36;;;;;;;11.27;10.68;;;;;;;;;;5054317;28;20021;-65
2024/01/23 08:24:01;;;;;;;10.80;10.30;;;;;;;;;;5080317;28;20610;-64
2024/01/23 08:26:26;;;;;;;10.30;9.80;;;;;;;;;;5058467;28;20554;-63
2024/01/23 08:28:51;;;;;;;10.70;10.20;;;;;;;;;;5068806;28;20013;-64
2024/01/23 08:31:17;;;;;;;10.40;9.90;;;;;;;;;;5050739;28;20368;-63
2024/01/23 08:33:43;;;;;;;10.32;9.82;;;;;;;;;;5073111;28;20024;-64
2024/01/23 08:36:09;;;;;;;10.40;9.90;;;;;;;;;;5068045;28;20485;-64
2024/01/23 08:38:34;;;;;;;10.30;9.80;;;;;;;;;;5080774;28;20024;-63
2024/01/23 08:41:00;;;;;;;10.02;9.52;;;;;;;;;;5068278;28;20039;-62
2024/01/23 08:43:25;;;;;;;10.15;9.65;;;;;;;;;;5072610;28;20020;-64
2024/01/23 08:45:50;;;;;;;10.30;9.80;;;;;;;;;;5073649;28;20021;-66
2024/01/23 08:48:21;;;;;;;10.55;10.05;;;;;;;;;;5073868;28;20036;-63
2024/01/23 08:50:47;;;;;;;10.35;9.85;;;;;;;;;;5073668;28;20025;-62
2024/01/23 08:53:12;;;;;;;11.40;10.80;;;;;;;;;;5075753;28;20031;-64
2024/01/23 08:55:37;;;;;;;10.90;10.40;;;;;;;;;;5075510;28;20020;-64
2024/01/23 08:58:03;;;;;;;10.70;10.20;;;;;;;;;;5073070;28;20020;-63
2024/01/23 09:00:28;;;;;;;10.75;10.25;;;;;;;;;;5085206;28;20024;-64
2024/01/23 09:02:54;;;;;;;11.52;10.93;;;;;;;;;;5056006;28;20419;-65
2024/01/23 09:05:19;;;;;;;11.23;10.63;;;;;;;;;;5077620;28;20037;-64
2024/01/23 09:07:45;;;;;;;11.32;10.73;;;;;;;;;;5067903;28;20588;-65
2024/01/23 09:10:10;;;;;;;11.85;11.25;;;;;;;;;;5070428;28;20082;-65
2024/01/23 09:12:36;;;;;;;11.98;11.38;;;;;;;;;;5069878;28;20026;-66
2024/01/23 09:15:04;;;;;;;10.93;10.43;;;;;;;;;;5053263;28;20017;-64
2024/01/23 09:17:30;;;;;;;10.70;10.20;;;;;;;;;;5065673;28;20029;-63
2024/01/23 09:19:55;;;;;;;11.40;10.80;;;;;;;;;;5065206;28;20030;-64
2024/01/23 09:22:20;;;;;;;10.95;10.45;;;;;;;;;;5074240;28;20078;-64
2024/01/23 09:24:46;;;;;;;12.13;11.52;;;;;;;;;;5060467;28;20028;-63
2024/01/23 09:27:11;;;;;;;11.98;11.38;;;;;;;;;;5064309;28;20062;-63
2024/01/23 09:29:37;;;;;;;11.00;10.50;;;;;;;;;;5054882;28;20029;-64
2024/01/23 09:32:03;;;;;;;11.75;11.15;;;;;;;;;;5060015;28;20025;-63
2024/01/23 09:34:28;;;;;;;11.02;10.50;;;;;;;;;;5070685;28;20070;-65
2024/01/23 09:36:54;;;;;;;11.48;10.88;;;;;;;;;;5074230;28;20095;-64
2024/01/23 09:39:19;;;;;;;10.48;9.98;;;;;;;;;;5069461;28;20029;-63
2024/01/23 09:41:46;;;;;;;11.23;10.65;;;;;;;;;;5069376;28;20020;-62
2024/01/23 09:44:12;;;;;;;11.02;10.52;;;;;;;;;;5066000;28;20379;-63
2024/01/23 09:46:38;;;;;;;10.90;10.40;;;;;;;;;;5066067;28;20146;-63
2024/01/23 09:49:03;;;;;;;11.43;10.82;;;;;;;;;;5057978;28;20036;-63
2024/01/23 09:51:29;;;;;;;10.98;10.48;;;;;;;;;;5064854;28;20043;-64
2024/01/23 09:53:55;;;;;;;11.55;10.95;;;;;;;;;;5064273;28;20021;-64
2024/01/23 09:56:21;;;;;;;11.10;10.60;;;;;;;;;;5067912;28;20362;-65
2024/01/23 09:58:46;;;;;;;10.80;10.30;;;;;;;;;;5061969;28;20025;-65
2024/01/23 10:01:12;;;;;;;10.80;10.30;;;;;;;;;;5061909;28;20031;-64
2024/01/23 10:03:37;;;;;;;11.60;11.00;;;;;;;;;;5069313;28;20055;-63
2024/01/23 10:06:04;;;;;;;11.05;10.55;;;;;;;;;;5074826;28;20044;-62
2024/01/23 10:08:29;;;;;;;11.27;10.68;;;;;;;;;;5065536;28;20029;-62
2024/01/23 10:11:01;;;;;;;10.38;9.88;;;;;;;;;;5062004;28;20043;-64
2024/01/23 10:13:27;;;;;;;10.75;10.25;;;;;;;;;;5061722;28;20031;-64
2024/01/23 10:15:55;;;;;;;10.90;10.40;;;;;;;;;;5058464;28;20036;-63
2024/01/23 10:18:21;;;;;;;10.70;10.20;;;;;;;;;;5062555;28;20100;-62
2024/01/23 10:20:47;;;;;;;11.55;10.95;;;;;;;;;;5075085;28;20031;-64
2024/01/23 10:23:12;;;;;;;11.50;10.90;;;;;;;;;;5064835;28;20390;-63
2024/01/23 10:25:38;;;;;;;11.15;10.60;;;;;;;;;;5062999;28;20017;-62
2024/01/23 10:28:06;;;;;;;11.63;11.02;;;;;;;;;;5064136;28;20082;-65
2024/01/23 10:30:32;;;;;;;11.23;10.70;;;;;;;;;;5067058;28;20028;-64
2024/01/23 10:32:58;;;;;;;11.65;11.05;;;;;;;;;;5065702;28;20403;-64
2024/01/23 10:35:25;;;;;;;11.10;10.60;;;;;;;;;;5063843;28;20058;-64
2024/01/23 10:37:51;;;;;;;12.23;11.63;;;;;;;;;;5070872;28;20021;-64
2024/01/23 10:40:23;;;;;;;11.43;10.82;;;;;;;;;;5064216;28;20021;-64
2024/01/23 10:42:49;;;;;;;11.70;11.10;;;;;;;;;;5061805;28;20013;-65
2024/01/23 10:45:16;;;;;;;11.82;11.23;;;;;;;;;;5050654;28;20043;-64
2024/01/23 10:47:42;;;;;;;11.65;11.05;;;;;;;;;;5060144;28;20020;-64
2024/01/23 10:50:09;;;;;;;11.68;11.07;;;;;;;;;;5054850;28;20461;-66
2024/01/23 10:52:39;;;;;;;11.93;11.32;;;;;;;;;;5058771;28;20021;-64
2024/01/23 10:55:05;;;;;;;11.60;11.00;;;;;;;;;;5064017;28;20055;-63
2024/01/23 10:57:33;;;;;;;11.40;10.80;;;;;;;;;;5055482;28;20053;-64
2024/01/23 11:00:01;;;;;;;12.63;11.93;;;;;;;;;;5061810;28;20074;-66
2024/01/23 11:02:30;;;;;;;11.95;11.35;;;;;;;;;;5063813;28;20078;-64
2024/01/23 11:04:57;;;;;;;11.32;10.82;;;;;;;;;;5062244;28;20055;-64
2024/01/23 11:07:43;;;;;;;11.88;11.27;;;;;;;;;;5060623;28;20033;-63
2024/01/23 11:10:21;;;;;;;12.02;11.43;;;;;;;;;;5043311;28;20080;-64
2024/01/23 11:13:10;;;;;;;12.20;11.60;;;;;;;;;;5063685;28;20098;-64
2024/01/23 11:15:36;;;;;;;12.50;11.85;;;;;;;;;;5047650;28;20060;-63
2024/01/23 11:18:20;;;;;;;12.05;11.45;;;;;;;;;;5063158;28;20491;-63
2024/01/23 11:21:00;;;;;;;11.90;11.30;;;;;;;;;;5064471;28;20035;-64
2024/01/23 11:23:25;;;;;;;11.68;11.07;;;;;;;;;;5068115;28;20039;-64
2024/01/23 11:25:57;;;;;;;11.63;11.02;;;;;;;;;;5062449;28;20024;-65
2024/01/23 11:28:23;;;;;;;11.88;11.27;;;;;;;;;;5046904;28;20029;-64
2024/01/23 11:31:28;;;;;;;11.65;11.05;;;;;;;;;;5064755;28;20403;-64
2024/01/23 11:34:13;;;;;;;11.63;11.02;;;;;;;;;;4959399;28;20162;-63
2024/01/23 11:36:39;;;;;;;11.70;11.10;;;;;;;;;;4965473;28;20039;-64
2024/01/23 11:39:04;;;;;;;11.82;11.23;;;;;;;;;;5024776;28;20165;-63
2024/01/23 11:41:30;;;;;;;11.13;10.63;;;;;;;;;;5067732;28;20028;-64
2024/01/23 11:44:02;;;;;;;10.70;10.20;;;;;;;;;;5067113;28;20028;-64
2024/01/23 11:46:28;;;;;;;10.23;9.73;;;;;;;;;;5059566;28;20016;-64
2024/01/23 11:48:54;;;;;;;10.95;10.45;;;;;;;;;;5071002;28;20012;-63
2024/01/23 11:51:20;;;;;;;10.70;10.20;;;;;;;;;;5050526;28;20045;-64
2024/01/23 11:53:46;;;;;;;11.52;10.93;;;;;;;;;;5066019;28;20016;-64
2024/01/23 11:56:12;;;;;;;11.75;11.15;;;;;;;;;;5062308;28;20074;-63
2024/01/23 11:58:38;;;;;;;11.00;10.50;;;;;;;;;;5063164;28;20047;-65
2024/01/23 12:01:07;;;;;;;10.88;10.38;;;;;;;;;;5049786;28;20065;-62
2024/01/23 12:03:34;;;;;;;11.88;11.27;;;;;;;;;;5065829;28;20482;-62
2024/01/23 12:06:00;;;;;;;11.48;10.88;;;;;;;;;;5064076;28;20052;-63
2024/01/23 12:08:26;;;;;;;11.77;11.18;;;;;;;;;;5063737;28;20491;-63
2024/01/23 12:10:51;;;;;;;10.82;10.32;;;;;;;;;;5064342;28;20028;-63
2024/01/23 12:13:17;;;;;;;10.93;10.43;;;;;;;;;;5057561;28;20024;-63
2024/01/23 12:15:43;;;;;;;11.70;11.10;;;;;;;;;;5062089;28;20040;-62
2024/01/23 12:18:14;;;;;;;10.98;10.48;;;;;;;;;;5062599;28;20032;-64
2024/01/23 12:20:46;;;;;;;12.10;11.50;;;;;;;;;;5060854;28;20441;-62
2024/01/23 12:23:12;;;;;;;10.93;10.43;;;;;;;;;;5061393;28;20017;-63
2024/01/23 12:25:37;;;;;;;11.75;11.15;;;;;;;;;;5063613;28;20541;-62
2024/01/23 12:28:02;;;;;;;11.82;11.23;;;;;;;;;;5047225;28;20051;-64
2024/01/23 12:30:28;;;;;;;11.05;10.55;;;;;;;;;;5068246;28;20033;-62
2024/01/23 12:32:56;;;;;;;12.02;11.43;;;;;;;;;;5063688;28;20074;-63
2024/01/23 12:35:22;;;;;;;12.00;11.40;;;;;;;;;;5063261;28;20023;-63
2024/01/23 12:37:50;;;;;;;11.43;10.93;;;;;;;;;;5045591;28;20029;-63
2024/01/23 12:40:16;;;;;;;12.02;11.43;;;;;;;;;;5064813;28;20044;-63
2024/01/23 12:42:46;;;;;;;11.50;10.90;;;;;;;;;;5059716;28;20052;-63
2024/01/23 12:45:13;;;;;;;11.27;10.77;;;;;;;;;;5067254;28;20556;-63
2024/01/23 12:47:38;;;;;;;10.90;10.40;;;;;;;;;;5065747;28;20024;-62
2024/01/23 12:50:05;;;;;;;11.13;10.63;;;;;;;;;;5064131;28;20027;-66
2024/01/23 12:52:30;;;;;;;11.32;10.80;;;;;;;;;;5059351;28;20059;-65
2024/01/23 12:54:56;;;;;;;11.73;11.13;;;;;;;;;;5063570;28;20059;-64
2024/01/23 12:57:21;;;;;;;11.95;11.35;;;;;;;;;;5068639;28;20062;-64
2024/01/23 12:59:47;;;;;;;11.25;10.75;;;;;;;;;;5062263;28;20124;-64
2024/01/23 13:02:12;;;;;;;11.13;10.63;;;;;;;;;;5063789;28;20485;-63
2024/01/23 13:04:37;;;;;;;10.98;10.48;;;;;;;;;;5054928;28;20043;-64
2024/01/23 13:07:03;;;;;;;11.48;10.90;;;;;;;;;;5064918;28;20035;-63
2024/01/23 13:09:28;;;;;;;11.50;10.90;;;;;;;;;;5061442;28;20025;-63
2024/01/23 13:11:54;;;;;;;11.95;11.35;;;;;;;;;;5063090;28;20028;-63
2024/01/23 13:14:22;;;;;;;11.65;11.05;;;;;;;;;;5060986;28;20524;-63
2024/01/23 13:16:48;;;;;;;11.52;10.93;;;;;;;;;;5065054;28;20078;-63
2024/01/23 13:19:13;;;;;;;11.20;10.70;;;;;;;;;;5073850;28;20024;-63
2024/01/23 13:21:39;;;;;;;11.63;11.02;;;;;;;;;;5068971;28;20035;-62
2024/01/23 13:24:04;;;;;;;11.75;11.15;;;;;;;;;;5064249;28;20028;-63
2024/01/23 13:26:29;;;;;;;11.68;11.07;;;;;;;;;;5054739;28;20111;-64
2024/01/23 13:28:55;;;;;;;11.70;11.10;;;;;;;;;;5066634;28;20035;-63
2024/01/23 13:31:21;;;;;;;11.45;10.85;;;;;;;;;;5064109;28;20380;-62
2024/01/23 13:33:47;;;;;;;11.52;10.93;;;;;;;;;;5063605;28;20025;-64
2024/01/23 13:36:12;;;;;;;10.75;10.25;;;;;;;;;;5070890;28;20416;-63
2024/01/23 13:38:38;;;;;;;11.80;11.20;;;;;;;;;;5067417;28;20574;-63
2024/01/23 13:41:04;;;;;;;11.07;10.57;;;;;;;;;;5060196;28;20051;-65
2024/01/23 13:43:30;;;;;;;10.50;10.00;;;;;;;;;;5066478;28;20036;-63
2024/01/23 13:45:57;;;;;;;11.07;10.57;;;;;;;;;;5062987;28;20013;-65
2024/01/23 13:48:22;;;;;;;10.75;10.25;;;;;;;;;;5067635;28;20025;-66
2024/01/23 13:50:48;;;;;;;11.32;10.75;;;;;;;;;;5064241;28;20020;-66
2024/01/23 13:53:13;;;;;;;10.32;9.85;;;;;;;;;;5068848;28;20059;-64
2024/01/23 13:55:39;;;;;;;11.45;10.85;;;;;;;;;;5065652;28;20046;-64
2024/01/23 13:58:05;;;;;;;10.77;10.27;;;;;;;;;;5069209;28;20116;-64
2024/01/23 14:00:30;;;;;;;10.90;10.40;;;;;;;;;;5075602;28;20095;-64
2024/01/23 14:02:56;;;;;;;11.27;10.68;;;;;;;;;;5072119;28;20060;-65
2024/01/23 14:05:22;;;;;;;10.82;10.32;;;;;;;;;;5065154;28;20052;-65
2024/01/23 14:07:48;;;;;;;10.70;10.20;;;;;;;;;;5067156;28;20024;-65
2024/01/23 14:10:16;;;;;;;11.40;10.80;;;;;;;;;;5062954;28;20077;-65
2024/01/23 14:12:45;;;;;;;10.30;9.80;;;;;;;;;;5039923;28;20025;-65
2024/01/23 14:15:11;;;;;;;10.75;10.25;;;;;;;;;;5068440;28;20152;-62